createdAt,value
2023-05-21T00:03:39.774Z,12.4
2023-05-21T00:08:39.706Z,12.4
2023-05-21T00:14:40.701Z,12.5
2023-05-21T00:19:51.097Z,12.5
2023-05-21T00:25:01.463Z,12.4
2023-05-21T00:30:11.828Z,12.4
2023-05-21T00:35:22.733Z,12.3
2023-05-21T00:40:33.097Z,12.2
2023-05-21T00:45:43.537Z,12.1
2023-05-21T00:50:54.372Z,12.1
2023-05-21T00:57:22.365Z,11.9
2023-05-21T01:02:32.820Z,11.9
2023-05-21T01:07:43.634Z,11.8
2023-05-21T01:13:32.808Z,11.8
2023-05-21T01:18:39.708Z,11.6
2023-05-21T01:23:39.684Z,11.6
2023-05-21T01:29:04.432Z,11.6
2023-05-21T01:34:14.830Z,11.4
2023-05-21T01:39:25.207Z,11.4
2023-05-21T01:45:14.908Z,11.4
2023-05-21T01:50:25.288Z,11.4
2023-05-21T01:55:35.846Z,11.4
2023-05-21T02:00:46.020Z,11.4
2023-05-21T02:06:35.702Z,11.5
2023-05-21T02:11:46.106Z,11.5
2023-05-21T02:16:56.473Z,11.5
2023-05-21T02:22:07.370Z,11.5
2023-05-21T02:27:56.538Z,11.5
2023-05-21T02:33:06.960Z,11.4
2023-05-21T02:38:17.275Z,11.4
2023-05-21T02:43:39.696Z,11.4
2023-05-21T02:49:11.574Z,11.4
2023-05-21T03:00:11.665Z,11.3
2023-05-21T03:05:22.058Z,11.3
2023-05-21T03:10:32.438Z,11.4
2023-05-21T03:15:43.296Z,11.3
2023-05-21T03:20:53.728Z,11.3
2023-05-21T03:26:04.062Z,11.3
2023-05-21T03:31:14.445Z,11.4
2023-05-21T03:36:25.323Z,11.4
2023-05-21T03:41:35.710Z,11.4
2023-05-21T03:46:46.120Z,11.4
2023-05-21T03:51:56.718Z,11.4
2023-05-21T03:57:07.358Z,11.4
2023-05-21T04:02:17.804Z,11.3
2023-05-21T04:07:28.090Z,11.3
2023-05-21T04:12:38.467Z,11.3
2023-05-21T04:17:49.416Z,11.3
2023-05-21T04:23:38.557Z,11.3
2023-05-21T04:28:39.680Z,11.4
2023-05-21T04:33:39.702Z,11.5
2023-05-21T04:39:10.186Z,11.6
2023-05-21T04:44:20.559Z,11.4
2023-05-21T04:50:09.774Z,11.3
2023-05-21T04:55:20.142Z,11.3
2023-05-21T05:00:30.564Z,11.3
2023-05-21T05:06:58.471Z,11.3
2023-05-21T05:12:47.625Z,11.2
2023-05-21T05:17:58.055Z,11.2
2023-05-21T05:23:07.880Z,11.3
2023-05-21T05:28:18.254Z,11.4
2023-05-21T05:33:28.623Z,11.4
2023-05-21T05:38:39.056Z,11.5
2023-05-21T05:43:39.737Z,11.8
2023-05-21T05:49:00.259Z,11.9
2023-05-21T05:54:10.640Z,12
2023-05-21T05:59:20.994Z,12.2
2023-05-21T06:05:10.218Z,12.3
2023-05-21T06:10:20.681Z,12.3
2023-05-21T06:15:31.447Z,12.8
2023-05-21T06:20:41.832Z,12.9
2023-05-21T06:25:52.226Z,12.8
2023-05-21T06:31:02.585Z,13.3
2023-05-21T06:36:52.275Z,13.9
2023-05-21T06:42:41.462Z,13.7
2023-05-21T06:47:52.400Z,14.4
2023-05-21T06:53:02.721Z,15.1
2023-05-21T06:58:07.883Z,15.7
2023-05-21T07:03:18.306Z,16.4
2023-05-21T07:08:29.462Z,17.3
2023-05-21T07:13:39.828Z,17.6
2023-05-21T07:18:39.688Z,19.2
2023-05-21T07:24:17.576Z,18.2
2023-05-21T07:32:20.399Z,18.8
2023-05-21T07:38:39.703Z,18.9
2023-05-21T07:44:50.134Z,18.6
2023-05-21T07:52:20.035Z,18.8
2023-05-21T07:58:39.693Z,19.9
2023-05-21T08:03:39.829Z,20.4
2023-05-21T08:08:39.699Z,18.7
2023-05-21T08:13:39.722Z,19.5
2023-05-21T08:21:53.289Z,18.8
2023-05-21T08:28:39.680Z,19.6
2023-05-21T08:38:39.700Z,20.8
2023-05-21T08:48:39.692Z,20.4
2023-05-21T08:53:39.703Z,20.7
2023-05-21T09:00:30.927Z,20.5
2023-05-21T09:08:39.778Z,20.7
2023-05-21T09:16:32.497Z,20.8
2023-05-21T09:23:39.693Z,21.4
2023-05-21T09:28:39.690Z,21.2
2023-05-21T09:38:39.716Z,20.8
2023-05-21T09:53:39.686Z,22.3
2023-05-21T09:58:39.688Z,22.2
2023-05-21T10:04:42.931Z,22
2023-05-21T10:13:39.703Z,23.4
2023-05-21T10:21:27.883Z,23.1
2023-05-21T10:28:39.750Z,22.9
2023-05-21T10:38:39.709Z,24.1
2023-05-21T10:43:39.707Z,25.3
2023-05-21T10:50:55.736Z,25.6
2023-05-21T10:58:39.706Z,25.6
2023-05-21T11:03:43.355Z,26.3
2023-05-21T11:13:39.693Z,25.9
2023-05-21T11:18:39.715Z,26.3
2023-05-21T11:23:42.798Z,26.4
2023-05-21T11:29:02.637Z,26.9
2023-05-21T11:38:39.753Z,27.2
2023-05-21T11:45:50.282Z,27.7
2023-05-21T11:51:09.567Z,27.4
2023-05-21T11:56:56.645Z,27.9
2023-05-21T12:02:15.417Z,27.4
2023-05-21T12:07:23.156Z,28.2
2023-05-21T12:12:54.812Z,27.2
2023-05-21T12:18:05.964Z,27.2
2023-05-21T12:23:39.680Z,26.7
2023-05-21T12:28:39.701Z,26.8
2023-05-21T12:33:39.709Z,27
2023-05-21T12:39:02.100Z,27.5
2023-05-21T12:44:14.029Z,27.8
2023-05-21T12:49:26.005Z,27.1
2023-05-21T12:54:37.943Z,27.6
2023-05-21T12:59:49.880Z,27.7
2023-05-21T13:05:01.834Z,28.1
2023-05-21T13:10:13.761Z,27.4
2023-05-21T13:15:25.727Z,27.7
2023-05-21T13:21:55.792Z,28.8
2023-05-21T13:27:07.735Z,28.9
2023-05-21T13:32:19.693Z,28.6
2023-05-21T13:37:31.594Z,29.2
2023-05-21T13:42:43.552Z,29.4
2023-05-21T13:47:56.030Z,29.9
2023-05-21T13:53:07.973Z,29.8
2023-05-21T13:58:19.923Z,29.9
2023-05-21T14:03:31.380Z,30.4
2023-05-21T14:08:39.713Z,29.6
2023-05-21T14:13:39.712Z,29.4
2023-05-21T14:19:06.757Z,29.4
2023-05-21T14:29:29.483Z,29.2
2023-05-21T14:35:19.747Z,29.3
2023-05-21T14:40:31.135Z,27.3
2023-05-21T14:45:42.564Z,27.4
2023-05-21T14:50:53.981Z,27.3
2023-05-21T14:56:05.405Z,27.3
2023-05-21T15:01:55.806Z,26.6
2023-05-21T15:07:07.057Z,27.1
2023-05-21T15:12:18.471Z,26.4
2023-05-21T15:17:29.466Z,26.6
2023-05-21T15:22:40.785Z,26.1
2023-05-21T15:27:52.238Z,26.1
2023-05-21T15:33:03.127Z,25.3
2023-05-21T15:38:14.535Z,25.2
2023-05-21T15:43:25.951Z,25.4
2023-05-21T15:48:39.704Z,25.5
2023-05-21T15:53:39.700Z,24.9
2023-05-21T15:58:59.179Z,25.2
2023-05-21T16:04:10.745Z,25.3
2023-05-21T16:09:21.487Z,25.7
2023-05-21T16:14:32.923Z,25.9
2023-05-21T16:19:43.832Z,26.3
2023-05-21T16:24:55.249Z,26.1
2023-05-21T16:30:06.143Z,25.3
2023-05-21T16:35:17.565Z,24.4
2023-05-21T16:40:28.487Z,24.1
2023-05-21T16:45:39.900Z,23.8
2023-05-21T16:50:50.792Z,23.4
2023-05-21T16:56:01.697Z,23.1
2023-05-21T17:01:13.176Z,22.8
2023-05-21T17:06:24.033Z,22.8
2023-05-21T17:11:34.930Z,22.7
2023-05-21T17:16:46.341Z,22.6
2023-05-21T17:22:36.092Z,22.6
2023-05-21T17:28:26.244Z,22.4
2023-05-21T17:33:37.166Z,22.2
2023-05-21T17:38:39.703Z,21.8
2023-05-21T17:43:58.940Z,21.6
2023-05-21T17:49:10.345Z,21.4
2023-05-21T17:54:21.250Z,21.4
2023-05-21T17:59:32.157Z,21.3
2023-05-21T18:04:43.068Z,21.1
2023-05-21T18:09:53.989Z,20.9
2023-05-21T18:15:44.196Z,20.8
2023-05-21T18:20:55.067Z,20.8
2023-05-21T18:26:06.038Z,20.7
2023-05-21T18:31:55.724Z,20.6
2023-05-21T18:37:06.581Z,20.4
2023-05-21T18:42:17.989Z,20.4
2023-05-21T18:47:28.915Z,20.3
2023-05-21T18:52:39.786Z,20.2
2023-05-21T18:58:29.510Z,20.1
2023-05-21T19:03:39.777Z,19.8
2023-05-21T19:08:40.062Z,19.7
2023-05-21T19:13:39.702Z,19.6
2023-05-21T19:19:13.126Z,19.5
2023-05-21T19:24:24.025Z,19.4
2023-05-21T19:29:34.887Z,19.3
2023-05-21T19:34:45.789Z,19.1
2023-05-21T19:39:56.705Z,18.9
2023-05-21T19:45:07.578Z,18.8
2023-05-21T19:50:18.487Z,18.8
2023-05-21T19:56:08.182Z,18.8
2023-05-21T20:01:19.126Z,18.7
2023-05-21T20:11:40.863Z,18.6
2023-05-21T20:16:51.842Z,18.6
2023-05-21T20:22:02.680Z,18.7
2023-05-21T20:27:13.599Z,18.7
2023-05-21T20:32:24.561Z,18.8
2023-05-21T20:38:14.142Z,18.9
2023-05-21T20:43:25.079Z,18.9
2023-05-21T20:48:35.998Z,18.9
2023-05-21T20:53:39.682Z,18.7
2023-05-21T20:58:39.700Z,18.6
2023-05-21T21:03:39.896Z,18.4
2023-05-21T21:08:40.322Z,18.3
2023-05-21T21:13:51.136Z,18.1
2023-05-21T21:19:02.053Z,17.9
2023-05-21T21:24:12.906Z,17.8
2023-05-21T21:30:02.098Z,17.7
2023-05-21T21:35:12.993Z,17.6
2023-05-21T21:40:23.901Z,17.4
2023-05-21T21:45:34.822Z,17.3
2023-05-21T21:50:45.764Z,17.3
2023-05-21T21:55:56.585Z,17.3
2023-05-21T22:01:07.011Z,17.1
2023-05-21T22:06:17.872Z,17
2023-05-21T22:11:28.757Z,17
2023-05-21T22:16:39.710Z,16.8
2023-05-21T22:21:50.573Z,16.7
2023-05-21T22:27:40.251Z,16.7
2023-05-21T22:32:50.696Z,16.8
2023-05-21T22:38:01.538Z,16.7
2023-05-21T22:43:12.426Z,16.7
2023-05-21T22:48:23.323Z,16.7
2023-05-21T22:53:33.730Z,16.6
2023-05-21T22:58:39.713Z,16.7
2023-05-21T23:03:55.515Z,16.6
2023-05-21T23:09:06.392Z,16.6
2023-05-21T23:14:17.304Z,16.5
2023-05-21T23:19:27.763Z,16.4
2023-05-21T23:24:38.599Z,16.4
2023-05-21T23:29:49.473Z,16.3
2023-05-21T23:35:00.388Z,16.3
2023-05-21T23:40:10.766Z,16.3
2023-05-21T23:45:21.708Z,16.1
2023-05-21T23:50:32.536Z,16.3
2023-05-21T23:55:43.451Z,16.3
